Time;durP1;ratioP1;P1;durP2;ratioP2;P2;SDS_P1;SDS_P2;PMS_P1;PMS_P2;Temp;Humidity;BMP_temperature;BMP_pressure;BME280_temperature;BME280_humidity;BME280_pressure;Samples;Min_cycle;Max_cycle;Signal;HPM_P1;HPM_P2
2022/07/27 00:00:19;;;;;;;;;1.33;1.00;;;;;18.81;66.12;100670.81;5025447;28;45655;-82
2022/07/27 00:02:44;;;;;;;;;1.00;1.00;;;;;18.81;66.23;100684.91;5021082;28;45549;-83
2022/07/27 00:05:10;;;;;;;;;0.33;0.00;;;;;18.87;65.32;100676.09;5014810;28;45568;-82
2022/07/27 00:07:36;;;;;;;;;0.00;0.00;;;;;18.84;64.84;100645.22;5016564;28;45831;-80
2022/07/27 00:10:03;;;;;;;;;2.00;1.33;;;;;19.06;64.65;100663.69;5016408;28;45340;-81
2022/07/27 00:12:29;;;;;;;;;1.00;1.00;;;;;19.21;64.08;100674.22;5031006;28;47724;-82
2022/07/27 00:14:57;;;;;;;;;1.00;1.00;;;;;19.26;64.27;100675.09;5015630;28;45270;-82
2022/07/27 00:17:26;;;;;;;;;3.33;2.00;;;;;19.11;64.40;100635.41;5015938;28;45466;-83
2022/07/27 00:19:52;;;;;;;;;2.00;1.67;;;;;19.06;65.37;100669.00;5028335;28;45558;-80
2022/07/27 00:22:18;;;;;;;;;1.33;1.00;;;;;18.79;65.45;100639.03;5022127;28;45516;-83
2022/07/27 00:24:44;;;;;;;;;2.00;1.00;;;;;18.89;65.28;100653.13;5019263;28;45272;-82
2022/07/27 00:27:09;;;;;;;;;2.67;1.67;;;;;18.93;65.40;100669.91;5019479;28;45548;-83
2022/07/27 00:29:35;;;;;;;;;2.00;1.00;;;;;19.01;65.21;100673.41;5019516;28;45575;-83
2022/07/27 00:32:00;;;;;;;;;0.67;0.67;;;;;18.89;64.75;100637.25;5019150;28;45483;-83
2022/07/27 00:34:29;;;;;;;;;0.00;0.00;;;;;19.01;64.85;100650.44;5018238;28;45622;-82
2022/07/27 00:36:55;;;;;;;;;2.00;1.00;;;;;19.04;65.01;100657.53;5018614;28;45450;-79
2022/07/27 00:39:20;;;;;;;;;3.00;2.00;;;;;18.95;66.17;100663.69;5019056;28;47195;-83
2022/07/27 00:41:46;;;;;;;;;3.00;2.00;;;;;18.84;65.96;100660.19;5048182;28;46375;-79
2022/07/27 00:44:11;;;;;;;;;1.67;1.67;;;;;18.69;66.51;100650.50;5020747;28;45465;-82
2022/07/27 00:46:37;;;;;;;;;1.67;1.67;;;;;18.60;66.95;100651.41;5027707;28;45695;-83
2022/07/27 00:49:03;;;;;;;;;2.00;1.00;;;;;18.45;67.60;100641.69;5030285;28;45633;-82
2022/07/27 00:51:31;;;;;;;;;0.67;0.67;;;;;18.23;67.70;100611.75;5031122;28;45480;-82
2022/07/27 00:54:00;;;;;;;;;0.67;0.67;;;;;18.37;68.07;100654.06;5038534;28;45553;-82
2022/07/27 00:56:26;;;;;;;;;0.67;0.67;;;;;18.32;68.30;100652.28;5038753;28;45261;-79
2022/07/27 00:58:52;;;;;;;;;1.33;1.33;;;;;18.21;67.87;100632.03;5039368;28;45485;-80
2022/07/27 01:01:18;;;;;;;;;2.67;2.00;;;;;18.25;68.39;100639.06;5037565;28;47209;-78
2022/07/27 01:03:45;;;;;;;;;1.00;1.00;;;;;18.21;68.54;100641.72;5038851;28;45724;-81
2022/07/27 01:06:11;;;;;;;;;1.67;1.33;;;;;18.01;68.38;100608.22;5038960;28;45281;-79
2022/07/27 01:08:36;;;;;;;;;4.00;2.00;;;;;18.11;68.51;100617.03;5039118;28;45306;-79
2022/07/27 01:11:03;;;;;;;;;1.67;1.67;;;;;18.23;67.83;100627.63;5038646;28;46244;-77
2022/07/27 01:13:31;;;;;;;;;2.67;2.67;;;;;18.18;67.95;100600.28;5028381;28;45260;-77
2022/07/27 01:15:58;;;;;;;;;3.00;3.00;;;;;18.37;67.88;100624.97;5018064;28;45324;-75
2022/07/27 01:18:31;;;;;;;;;2.67;2.00;;;;;18.38;67.72;100625.84;5034208;28;45489;-79
2022/07/27 01:20:58;;;;;;;;;1.67;1.67;;;;;18.35;67.63;100615.28;5016600;28;46382;-82
2022/07/27 01:23:24;;;;;;;;;1.00;1.00;;;;;18.32;67.44;100618.78;5017718;28;45490;-79
2022/07/27 01:25:50;;;;;;;;;3.67;1.00;;;;;18.28;68.05;100624.97;5017866;28;45498;-76
2022/07/27 01:28:15;;;;;;;;;1.67;1.67;;;;;18.22;68.47;100617.94;5018409;28;45355;-73
2022/07/27 01:30:41;;;;;;;;;2.00;2.00;;;;;18.07;68.18;100587.06;5026238;28;45451;-80
2022/07/27 01:33:08;;;;;;;;;2.33;1.67;;;;;18.18;68.64;100604.69;5025078;28;45390;-82
2022/07/27 01:35:35;;;;;;;;;1.33;1.33;;;;;18.12;68.49;100604.69;5026562;28;45449;-81
2022/07/27 01:38:00;;;;;;;;;1.33;1.33;;;;;17.80;68.78;100553.56;5017985;28;45507;-75
2022/07/27 01:40:26;;;;;;;;;2.00;2.00;;;;;18.05;68.84;100610.00;5017449;28;45992;-79
2022/07/27 01:42:52;;;;;;;;;3.00;2.00;;;;;18.05;69.13;100609.13;5017649;28;45415;-79
2022/07/27 01:45:18;;;;;;;;;1.33;1.33;;;;;17.95;69.16;100610.88;5017917;28;45593;-74
2022/07/27 01:47:44;;;;;;;;;1.33;0.67;;;;;17.92;68.84;100609.97;5018235;28;45485;-74
2022/07/27 01:50:10;;;;;;;;;1.67;0.67;;;;;17.62;68.63;100543.84;5017580;28;46062;-75
2022/07/27 01:52:38;;;;;;;;;2.67;2.67;;;;;17.95;68.55;100591.50;5017406;28;45419;-77
2022/07/27 01:55:09;;;;;;;;;1.67;1.67;;;;;18.00;68.41;100600.28;5017559;28;45494;-82
2022/07/27 01:57:35;;;;;;;;;2.00;2.00;;;;;18.01;68.34;100605.59;5020890;28;45608;-80
2022/07/27 02:00:04;;;;;;;;;1.67;1.67;;;;;18.00;68.74;100606.44;5029783;28;45475;-74
2022/07/27 02:02:29;;;;;;;;;1.67;1.67;;;;;17.95;68.64;100600.28;5020977;28;45477;-82
2022/07/27 02:04:55;;;;;;;;;1.33;1.33;;;;;17.94;69.15;100606.44;5037716;28;45419;-81
2022/07/27 02:07:20;;;;;;;;;0.67;0.67;;;;;17.80;68.66;100579.09;5018280;28;45396;-74
2022/07/27 02:09:46;;;;;;;;;1.33;1.33;;;;;17.92;68.22;100597.63;5017421;28;45556;-73
2022/07/27 02:14:55;;;;;;;;;0.67;0.67;;;;;17.77;68.89;100600.25;5032521;28;45493;-80
2022/07/27 02:17:21;;;;;;;;;2.67;1.67;;;;;17.68;69.60;100594.03;5017316;28;45472;-81
2022/07/27 02:19:47;;;;;;;;;2.00;1.00;;;;;17.67;69.17;100591.44;5017007;28;45554;-81
2022/07/27 02:22:13;;;;;;;;;1.33;1.00;;;;;17.62;70.13;100598.44;5017083;28;45483;-80
2022/07/27 02:24:38;;;;;;;;;0.00;0.00;;;;;17.57;70.07;100587.88;5017587;28;45380;-80
2022/07/27 02:27:04;;;;;;;;;1.00;1.00;;;;;17.40;70.20;100592.25;5020768;28;46040;-82
2022/07/27 02:29:29;;;;;;;;;2.00;1.33;;;;;17.35;70.21;100584.31;5027683;28;46073;-82
2022/07/27 02:31:56;;;;;;;;;1.00;1.00;;;;;17.33;70.24;100590.44;5017297;28;45519;-76
2022/07/27 02:34:21;;;;;;;;;1.00;1.00;;;;;17.27;70.70;100581.66;5027703;28;45248;-82
2022/07/27 02:36:47;;;;;;;;;1.33;1.33;;;;;17.26;70.37;100582.50;5016128;28;45390;-77
2022/07/27 02:39:12;;;;;;;;;3.00;1.00;;;;;17.29;70.08;100571.97;5017013;28;45874;-75
2022/07/27 02:41:38;;;;;;;;;1.00;1.00;;;;;17.24;69.77;100557.00;5016680;28;45532;-73
2022/07/27 02:44:04;;;;;;;;;3.00;3.00;;;;;17.28;69.62;100557.00;5032720;28;45320;-73
2022/07/27 02:46:30;;;;;;;;;2.67;2.00;;;;;17.28;69.81;100559.63;5026722;28;45652;-76
2022/07/27 02:48:55;;;;;;;;;1.00;1.00;;;;;17.26;69.48;100550.81;5033253;28;46089;-77
2022/07/27 02:51:21;;;;;;;;;1.00;1.00;;;;;17.26;69.93;100563.16;5034676;28;45418;-79
2022/07/27 02:53:46;;;;;;;;;1.00;1.00;;;;;17.14;70.75;100568.41;5024275;28;45474;-81
2022/07/27 02:56:12;;;;;;;;;3.00;2.00;;;;;17.01;70.27;100544.63;5027044;28;45625;-83
2022/07/27 02:58:37;;;;;;;;;1.00;1.00;;;;;17.08;70.34;100548.16;5038504;28;45864;-74
2022/07/27 03:01:04;;;;;;;;;1.00;1.00;;;;;17.17;70.33;100564.03;5018938;28;45417;-78
2022/07/27 03:03:30;;;;;;;;;2.00;2.00;;;;;17.17;70.36;100552.56;5022526;28;45465;-80
2022/07/27 03:05:55;;;;;;;;;1.33;1.33;;;;;17.13;70.20;100546.41;5018797;28;45549;-83
2022/07/27 03:08:22;;;;;;;;;1.67;1.67;;;;;17.10;70.10;100541.97;5019253;28;45512;-82
2022/07/27 03:10:47;;;;;;;;;2.00;1.33;;;;;17.09;70.11;100553.44;5018047;28;45390;-79
2022/07/27 03:13:13;;;;;;;;;2.00;1.00;;;;;17.10;69.86;100554.31;5017257;28;45319;-80
2022/07/27 03:15:39;;;;;;;;;1.00;1.00;;;;;17.05;69.87;100549.03;5016507;28;45464;-81
2022/07/27 03:18:05;;;;;;;;;1.33;1.33;;;;;16.99;70.12;100543.72;5027806;28;46258;-80
2022/07/27 03:20:30;;;;;;;;;2.00;1.67;;;;;16.97;70.05;100549.84;5020374;28;45585;-82
2022/07/27 03:22:56;;;;;;;;;1.00;1.00;;;;;16.80;69.92;100520.75;5016199;28;45515;-82
2022/07/27 03:25:22;;;;;;;;;1.33;1.33;;;;;16.88;69.87;100525.19;5016907;28;45427;-82
2022/07/27 03:27:47;;;;;;;;;1.00;1.00;;;;;16.94;69.67;100537.53;5016365;28;45521;-81
2022/07/27 03:30:13;;;;;;;;;1.67;1.00;;;;;16.95;69.47;100533.13;5016417;28;45510;-81
2022/07/27 03:32:39;;;;;;;;;1.00;1.00;;;;;16.93;69.54;100529.59;5016419;28;45378;-79
2022/07/27 03:35:05;;;;;;;;;2.00;1.00;;;;;16.87;69.73;100528.72;5016651;28;45368;-81
2022/07/27 03:37:31;;;;;;;;;1.00;1.00;;;;;16.81;69.73;100523.44;5015985;28;46137;-82
2022/07/27 03:39:57;;;;;;;;;1.00;1.00;;;;;16.70;69.65;100504.88;5015913;28;45790;-79
2022/07/27 03:42:22;;;;;;;;;2.00;1.33;;;;;16.69;70.27;100518.94;5031398;28;47097;-80
2022/07/27 03:44:48;;;;;;;;;2.00;1.00;;;;;16.56;70.37;100510.97;5018547;28;45578;-83
2022/07/27 03:47:14;;;;;;;;;1.00;1.00;;;;;16.64;70.29;100519.78;5035259;28;45385;-75
2022/07/27 03:49:39;;;;;;;;;1.00;1.00;;;;;16.57;70.13;100523.25;5022018;28;45567;-76
2022/07/27 03:52:05;;;;;;;;;1.00;1.00;;;;;16.55;70.36;100523.25;5015825;28;45499;-79
2022/07/27 03:54:31;;;;;;;;;1.00;1.00;;;;;16.56;70.07;100516.25;5018185;28;45452;-81
2022/07/27 03:56:56;;;;;;;;;0.00;0.00;;;;;15.82;69.98;100411.28;5018913;28;45476;-82
2022/07/27 03:59:22;;;;;;;;;2.00;1.00;;;;;16.33;70.50;100519.63;5020034;28;45379;-80
2022/07/27 04:01:47;;;;;;;;;1.00;1.00;;;;;16.29;70.72;100517.84;5019496;28;45695;-76
2022/07/27 04:04:13;;;;;;;;;1.00;1.00;;;;;15.87;71.32;100467.50;5019608;28;45439;-80
2022/07/27 04:06:41;;;;;;;;;1.00;1.00;;;;;16.10;72.25;100527.38;5019082;28;45458;-79
2022/07/27 04:09:07;;;;;;;;;1.00;1.00;;;;;16.05;72.08;100514.16;5019196;28;45538;-81
2022/07/27 04:11:32;;;;;;;;;1.67;1.67;;;;;15.80;73.01;100484.13;5018933;28;45398;-78
2022/07/27 04:13:58;;;;;;;;;1.00;1.00;;;;;15.85;72.61;100505.25;5019690;28;45366;-78
2022/07/27 04:16:23;;;;;;;;;1.33;1.33;;;;;16.06;71.87;100515.06;5019502;28;45874;-82
2022/07/27 04:18:49;;;;;;;;;2.00;1.00;;;;;15.83;72.07;100480.63;5034364;28;45506;-82
2022/07/27 04:21:14;;;;;;;;;2.67;1.00;;;;;16.05;71.76;100519.44;5018638;28;45610;-81
2022/07/27 04:23:41;;;;;;;;;3.00;1.00;;;;;16.05;71.81;100514.16;5019383;28;45462;-81
2022/07/27 04:26:06;;;;;;;;;1.67;1.00;;;;;16.07;71.27;100512.41;5018702;28;46065;-82
2022/07/27 04:28:32;;;;;;;;;1.00;1.00;;;;;15.99;71.14;100487.78;5018923;28;45641;-81
2022/07/27 04:30:57;;;;;;;;;1.00;1.00;;;;;15.96;70.44;100479.88;5017799;28;46509;-81
2022/07/27 04:33:23;;;;;;;;;0.00;0.00;;;;;16.15;70.34;100519.50;5025715;28;45536;-81
2022/07/27 04:35:48;;;;;;;;;1.00;1.00;;;;;16.08;70.31;100492.25;5018831;28;46174;-81
2022/07/27 04:38:14;;;;;;;;;1.00;1.00;;;;;16.13;70.21;100500.16;5022118;28;45410;-80
2022/07/27 04:40:39;;;;;;;;;1.00;1.00;;;;;15.90;70.72;100485.97;5030961;28;45405;-82
2022/07/27 04:43:05;;;;;;;;;0.00;0.00;;;;;16.06;70.73;100520.34;5030366;28;45463;-80
2022/07/27 04:45:31;;;;;;;;;0.00;0.00;;;;;15.88;70.62;100477.16;5022815;28;45454;-80
2022/07/27 04:47:57;;;;;;;;;2.00;1.00;;;;;15.77;70.55;100470.94;5022848;28;45498;-82
2022/07/27 04:50:23;;;;;;;;;1.00;1.00;;;;;16.06;70.32;100518.56;5038237;28;45595;-82
2022/07/27 04:52:48;;;;;;;;;4.67;4.67;;;;;15.83;70.06;100491.19;5026291;28;45610;-82
2022/07/27 04:55:14;;;;;;;;;1.33;1.00;;;;;15.86;70.11;100485.94;5017429;28;46219;-81
2022/07/27 04:57:40;;;;;;;;;1.00;1.00;;;;;15.99;70.50;100514.13;5018401;28;45624;-82
2022/07/27 05:00:09;;;;;;;;;1.00;1.00;;;;;16.03;70.35;100523.81;5016991;28;45439;-79
2022/07/27 05:02:39;;;;;;;;;2.00;1.00;;;;;16.09;69.93;100526.50;5022741;28;45281;-83
2022/07/27 05:05:06;;;;;;;;;5.67;4.00;;;;;16.16;69.80;100521.28;5029557;28;46209;-79
2022/07/27 05:07:31;;;;;;;;;2.67;2.00;;;;;16.14;69.79;100526.53;5030949;28;45504;-81
2022/07/27 05:09:57;;;;;;;;;2.00;1.33;;;;;16.16;69.87;100530.06;5037645;28;45437;-77
2022/07/27 05:12:22;;;;;;;;;1.00;1.00;;;;;16.13;69.76;100522.13;5033973;28;45304;-78
2022/07/27 05:14:48;;;;;;;;;2.00;2.00;;;;;16.12;69.92;100524.78;5018210;28;45434;-81
2022/07/27 05:17:13;;;;;;;;;1.00;1.00;;;;;16.16;69.94;100523.91;5018500;28;45480;-77
2022/07/27 05:19:39;;;;;;;;;1.00;1.00;;;;;15.91;69.61;100463.13;5016840;28;45625;-82
2022/07/27 05:22:04;;;;;;;;;2.00;1.00;;;;;16.24;69.51;100516.94;5018523;28;45382;-80
2022/07/27 05:24:30;;;;;;;;;1.00;1.00;;;;;16.14;69.32;100487.00;5018370;28;46237;-74
2022/07/27 05:26:55;;;;;;;;;1.00;1.00;;;;;16.22;69.09;100487.94;5018479;28;45397;-77
2022/07/27 05:29:21;;;;;;;;;2.00;2.00;;;;;16.03;68.75;100450.03;5018120;28;45608;-73
2022/07/27 05:31:46;;;;;;;;;2.00;2.00;;;;;16.23;69.43;100488.81;5033978;28;45319;-75
2022/07/27 05:34:12;;;;;;;;;0.67;0.67;;;;;16.26;68.89;100480.94;5017877;28;45497;-75
2022/07/27 05:36:37;;;;;;;;;1.00;0.67;;;;;16.23;68.55;100470.34;5018002;28;45522;-74
2022/07/27 05:39:03;;;;;;;;;1.00;1.00;;;;;16.44;68.23;100496.84;5017923;28;46185;-75
2022/07/27 05:41:28;;;;;;;;;1.00;1.00;;;;;16.24;68.41;100451.91;5018466;28;45500;-80
2022/07/27 05:43:54;;;;;;;;;1.67;1.67;;;;;15.96;68.30;100402.59;5017871;28;46045;-74
2022/07/27 05:46:20;;;;;;;;;1.00;1.00;;;;;16.22;68.71;100447.53;5017991;28;45598;-77
2022/07/27 05:48:46;;;;;;;;;1.00;1.00;;;;;16.57;68.40;100502.16;5017887;28;45737;-74
2022/07/27 05:51:12;;;;;;;;;1.00;0.33;;;;;16.62;68.18;100497.81;5022141;28;45477;-76
2022/07/27 05:53:37;;;;;;;;;2.00;2.00;;;;;16.70;68.18;100502.22;5037008;28;45421;-74
2022/07/27 05:56:03;;;;;;;;;0.00;0.00;;;;;16.78;68.15;100496.13;5025305;28;45597;-74
2022/07/27 05:58:29;;;;;;;;;1.00;1.00;;;;;16.67;68.55;100489.03;5018002;28;45479;-74
2022/07/27 06:00:55;;;;;;;;;1.67;1.67;;;;;16.55;68.45;100473.13;5037074;28;45332;-74
2022/07/27 06:03:22;;;;;;;;;3.00;2.00;;;;;16.61;68.76;100496.94;5035953;28;46197;-74
2022/07/27 06:05:47;;;;;;;;;1.00;1.00;;;;;16.74;68.63;100494.34;5035162;28;45432;-72
2022/07/27 06:08:13;;;;;;;;;1.33;1.00;;;;;16.78;68.18;100483.78;5034976;28;45419;-79
2022/07/27 06:10:40;;;;;;;;;1.00;1.00;;;;;17.00;67.88;100502.38;5031180;28;45529;-73
2022/07/27 06:13:07;;;;;;;;;1.00;1.00;;;;;16.97;68.30;100503.25;5034294;28;46546;-74
2022/07/27 06:15:34;;;;;;;;;2.00;1.00;;;;;16.75;68.77;100478.53;5034829;28;45561;-73
2022/07/27 06:18:00;;;;;;;;;1.00;1.00;;;;;17.59;68.16;100504.25;5034661;28;45511;-74
2022/07/27 06:20:26;;;;;;;;;1.33;0.67;;;;;21.20;56.51;100506.28;5034017;28;45443;-76
2022/07/27 06:22:54;;;;;;;;;1.00;1.00;;;;;24.23;51.69;100501.91;5048922;28;47835;-74
2022/07/27 06:25:21;;;;;;;;;1.00;1.00;;;;;26.55;43.03;100502.59;5033146;28;45790;-75
2022/07/27 06:27:47;;;;;;;;;1.00;1.00;;;;;27.70;40.24;100505.31;5035483;28;45550;-74
2022/07/27 06:30:16;;;;;;;;;0.00;0.00;;;;;29.01;38.08;100501.34;5034810;28;45860;-81
2022/07/27 06:32:42;;;;;;;;;2.33;1.00;;;;;30.27;35.91;100503.22;5034648;28;46116;-75
2022/07/27 06:35:08;;;;;;;;;2.00;2.00;;;;;31.21;33.39;100504.38;5024954;28;45435;-74
2022/07/27 06:37:35;;;;;;;;;0.00;0.00;;;;;32.03;32.92;100483.47;5016827;28;45174;-74
2022/07/27 06:40:02;;;;;;;;;0.67;0.00;;;;;33.16;30.87;100493.56;5017313;28;45858;-77
2022/07/27 06:42:27;;;;;;;;;1.00;1.00;;;;;33.99;29.38;100496.16;5016582;28;45648;-75
2022/07/27 06:44:53;;;;;;;;;1.00;1.00;;;;;34.78;30.89;100496.97;5016854;28;45451;-75
2022/07/27 06:47:19;;;;;;;;;0.00;0.00;;;;;35.44;27.18;100500.28;5023893;28;45944;-74
2022/07/27 06:49:44;;;;;;;;;0.00;0.00;;;;;36.12;26.72;100501.44;5036325;28;45581;-81
2022/07/27 06:52:10;;;;;;;;;0.00;0.00;;;;;36.39;25.56;100486.66;5019933;28;45542;-76
2022/07/27 06:54:35;;;;;;;;;0.00;0.00;;;;;37.06;25.25;100491.25;5016536;28;45315;-77
2022/07/27 06:57:01;;;;;;;;;0.00;0.00;;;;;37.66;24.09;100508.09;5017008;28;45569;-76
2022/07/27 06:59:26;;;;;;;;;0.25;0.25;;;;;38.41;26.09;100487.13;5016980;28;45375;-77
2022/07/27 07:01:52;;;;;;;;;0.00;0.00;;;;;39.66;23.32;100511.44;5016683;28;46032;-74
2022/07/27 07:04:20;;;;;;;;;0.00;0.00;;;;;40.54;22.23;100498.50;5016656;28;45482;-74
2022/07/27 07:06:46;;;;;;;;;0.75;0.00;;;;;41.32;21.44;100506.38;5016349;28;45614;-74
2022/07/27 07:09:11;;;;;;;;;0.67;0.00;;;;;41.80;21.16;100485.94;5016842;28;45523;-86
2022/07/27 07:11:37;;;;;;;;;0.00;0.00;;;;;42.60;20.02;100517.94;5016548;28;45438;-86
2022/07/27 07:14:02;;;;;;;;;1.00;0.25;;;;;43.03;19.85;100513.34;5016937;28;45517;-86
2022/07/27 07:16:28;;;;;;;;;1.00;0.67;;;;;43.53;18.90;100515.22;5017212;28;45511;-86
2022/07/27 07:18:53;;;;;;;;;0.33;0.33;;;;;43.94;18.05;100515.28;5027286;28;45387;-84
2022/07/27 07:21:19;;;;;;;;;0.67;0.00;;;;;44.38;18.41;100523.16;5020838;28;45471;-86
2022/07/27 07:23:45;;;;;;;;;0.00;0.00;;;;;44.76;17.82;100511.53;5016659;28;45592;-78
2022/07/27 07:26:10;;;;;;;;;0.00;0.00;;;;;45.35;17.81;100508.38;5041944;28;45486;-87
2022/07/27 07:28:36;;;;;;;;;0.75;0.00;;;;;45.77;16.93;100518.94;5044811;28;45524;-74
2022/07/27 07:31:02;;;;;;;;;0.00;0.00;;;;;46.23;16.77;100515.25;5049129;28;45462;-82
2022/07/27 07:33:27;;;;;;;;;0.33;0.33;;;;;46.61;17.05;100515.22;5048551;28;45470;-87
2022/07/27 07:35:53;;;;;;;;;1.00;0.67;;;;;47.01;16.08;100508.31;5045748;28;45399;-82
2022/07/27 07:38:19;;;;;;;;;0.33;0.33;;;;;47.19;14.59;100507.06;5046866;28;45480;-87
2022/07/27 07:40:44;;;;;;;;;0.00;0.00;;;;;46.70;15.47;100521.50;5041218;28;45430;-86
2022/07/27 07:43:11;;;;;;;;;0.00;0.00;;;;;47.37;15.84;100507.47;5039820;28;45333;-88
2022/07/27 07:45:37;;;;;;;;;0.00;0.00;;;;;47.85;15.61;100506.06;5039694;28;45263;-74
2022/07/27 07:48:04;;;;;;;;;0.00;0.00;;;;;48.16;15.87;100491.84;5039733;28;45616;-79
2022/07/27 07:50:31;;;;;;;;;0.00;0.00;;;;;48.33;14.07;100501.59;5038807;28;46060;-81
2022/07/27 07:52:57;;;;;;;;;0.67;0.67;;;;;48.40;15.17;100482.22;5040023;28;45442;-80
2022/07/27 07:55:41;;;;;;;;;0.33;0.33;;;;;48.47;14.59;100462.84;5038476;28;45575;-79
2022/07/27 07:58:07;;;;;;;;;0.00;0.00;;;;;48.88;14.16;100486.97;5034481;28;45454;-79
2022/07/27 08:00:32;;;;;;;;;0.00;0.00;;;;;49.04;14.05;100483.00;5036491;28;45829;-78
2022/07/27 08:02:58;;;;;;;;;0.00;0.00;;;;;49.18;14.52;100481.97;5034380;28;45562;-80
2022/07/27 08:05:25;;;;;;;;;0.00;0.00;;;;;49.09;13.23;100477.69;5036261;28;45421;-79
2022/07/27 08:07:50;;;;;;;;;0.67;0.00;;;;;49.18;13.06;100485.59;5035734;28;45344;-78
2022/07/27 08:10:18;;;;;;;;;0.00;0.00;;;;;49.47;12.52;100485.47;5035381;28;45496;-79
2022/07/27 08:12:46;;;;;;;;;0.00;0.00;;;;;49.62;12.07;100493.59;5036081;28;45456;-79
2022/07/27 08:15:13;;;;;;;;;0.00;0.00;;;;;49.20;12.25;100454.88;5036216;28;45616;-77
2022/07/27 08:17:39;;;;;;;;;0.67;0.00;;;;;48.72;13.17;100486.25;5035123;28;45829;-75
2022/07/27 08:20:05;;;;;;;;;0.67;0.00;;;;;48.59;12.04;100494.50;5033970;28;45864;-78
2022/07/27 08:22:31;;;;;;;;;0.33;0.33;;;;;48.75;12.12;100477.53;5036471;28;46603;-76
2022/07/27 08:24:57;;;;;;;;;0.00;0.00;;;;;47.79;12.50;100455.09;5024446;28;45368;-76
2022/07/27 08:27:22;;;;;;;;;0.00;0.00;;;;;48.07;12.77;100476.44;5018295;28;45477;-78
2022/07/27 08:29:48;;;;;;;;;0.00;0.00;;;;;47.54;12.72;100454.66;5033424;28;46413;-79
2022/07/27 08:32:14;;;;;;;;;0.00;0.00;;;;;47.20;13.24;100461.78;5028548;28;45397;-75
2022/07/27 08:34:40;;;;;;;;;0.00;0.00;;;;;47.32;13.23;100467.66;5036966;28;45806;-74
2022/07/27 08:37:05;;;;;;;;;0.00;0.00;;;;;46.74;13.73;100473.94;5022466;28;45486;-77
2022/07/27 08:39:31;;;;;;;;;0.00;0.00;;;;;45.12;14.30;100409.03;5017023;28;45477;-79
2022/07/27 08:42:02;;;;;;;;;0.00;0.00;;;;;46.08;14.20;100475.72;5018150;28;45530;-75
2022/07/27 08:44:29;;;;;;;;;0.00;0.00;;;;;46.76;13.37;100476.50;5018983;28;45457;-79
2022/07/27 08:46:56;;;;;;;;;0.00;0.00;;;;;46.47;13.64;100480.16;5018840;28;45316;-75
2022/07/27 08:49:23;;;;;;;;;0.00;0.00;;;;;46.85;13.40;100389.69;5018132;28;45537;-78
2022/07/27 08:51:49;;;;;;;;;0.00;0.00;;;;;47.87;13.16;100456.88;5018560;28;45325;-76
2022/07/27 08:54:15;;;;;;;;;0.00;0.00;;;;;47.55;12.90;100476.63;5018719;28;45336;-75
2022/07/27 08:56:42;;;;;;;;;0.00;0.00;;;;;45.79;14.08;100471.84;5029211;28;45399;-74
2022/07/27 08:59:08;;;;;;;;;0.00;0.00;;;;;42.91;16.24;100452.34;5037801;28;46142;-79
2022/07/27 09:01:37;;;;;;;;;0.00;0.00;;;;;40.49;18.39;100466.13;5036405;28;45435;-79
2022/07/27 09:04:02;;;;;;;;;0.00;0.00;;;;;38.59;19.56;100425.47;5030487;28;45438;-74
2022/07/27 09:06:49;;;;;;;;;2.33;2.33;;;;;38.10;21.00;100451.66;5025457;28;45257;-79
2022/07/27 09:09:19;;;;;;;;;0.00;0.00;;;;;37.10;22.03;100454.59;5019139;28;46140;-74
2022/07/27 09:12:05;;;;;;;;;0.00;0.00;;;;;35.53;23.79;100460.69;5017480;28;45479;-73
2022/07/27 09:14:34;;;;;;;;;0.00;0.00;;;;;35.17;24.25;100462.50;5017661;28;45663;-75
2022/07/27 09:17:18;;;;;;;;;0.00;0.00;;;;;37.27;22.90;100436.91;5017392;28;45351;-78
2022/07/27 09:19:53;;;;;;;;;0.00;0.00;;;;;37.84;21.32;100453.88;5017161;28;45959;-75
2022/07/27 09:22:51;;;;;;;;;0.00;0.00;;;;;36.23;22.44;100427.19;5017383;28;45492;-74
2022/07/27 09:25:30;;;;;;;;;0.00;0.00;;;;;36.94;21.91;100451.44;5022358;28;45422;-78
2022/07/27 09:27:57;;;;;;;;;0.00;0.00;;;;;35.86;22.79;100454.53;5026451;28;45542;-78
2022/07/27 09:30:27;;;;;;;;;0.00;0.00;;;;;34.51;24.41;100423.88;5031795;28;45611;-79
2022/07/27 09:33:02;;;;;;;;;0.00;0.00;;;;;33.23;26.66;100460.59;5036102;28;45343;-77
2022/07/27 09:35:35;;;;;;;;;0.00;0.00;;;;;32.46;26.90;100422.22;5028369;28;45321;-78
2022/07/27 09:38:20;;;;;;;;;0.67;0.00;;;;;31.64;27.47;100330.97;5016967;28;45304;-75
2022/07/27 09:40:47;;;;;;;;;0.67;0.33;;;;;31.67;27.77;100463.94;5016915;28;46304;-73
2022/07/27 09:43:13;;;;;;;;;0.00;0.00;;;;;31.61;27.40;100421.09;5017372;28;45382;-80
2022/07/27 09:45:43;;;;;;;;;0.00;0.00;;;;;31.70;28.45;100462.91;5028543;28;45433;-79
2022/07/27 09:48:20;;;;;;;;;0.67;0.33;;;;;31.35;28.36;100468.50;5020445;28;45537;-73
2022/07/27 09:50:59;;;;;;;;;0.00;0.00;;;;;31.24;28.48;100458.34;5022437;28;45746;-77
2022/07/27 09:53:33;;;;;;;;;1.67;1.67;;;;;31.00;29.85;100460.63;5016180;28;45320;-77
2022/07/27 09:56:14;;;;;;;;;1.00;1.00;;;;;30.50;30.05;100448.97;5016831;28;45793;-79
2022/07/27 09:58:46;;;;;;;;;0.67;0.67;;;;;30.89;29.62;100460.34;5016476;28;45304;-72
2022/07/27 10:01:16;;;;;;;;;0.00;0.00;;;;;30.97;28.94;100441.91;5016417;28;46468;-75
2022/07/27 10:03:43;;;;;;;;;2.00;1.00;;;;;31.24;29.19;100462.88;5016732;28;45320;-77
2022/07/27 10:06:10;;;;;;;;;0.00;0.00;;;;;31.11;29.18;100460.00;5029233;28;45506;-74
2022/07/27 10:08:38;;;;;;;;;1.00;0.00;;;;;30.65;29.26;100462.56;5017004;28;47027;-73
2022/07/27 10:11:04;;;;;;;;;1.00;0.00;;;;;30.53;29.63;100458.72;5028914;28;45367;-77
2022/07/27 10:13:31;;;;;;;;;0.00;0.00;;;;;30.39;29.33;100402.00;5020134;28;45323;-78
2022/07/27 10:15:58;;;;;;;;;1.00;0.33;;;;;30.53;30.05;100408.34;5031895;28;45430;-73
2022/07/27 10:18:54;;;;;;;;;1.00;0.00;;;;;30.96;30.39;100456.38;5016864;28;45501;-74
2022/07/27 10:21:21;;;;;;;;;0.00;0.00;;;;;31.23;28.76;100461.13;5017397;28;46057;-76
2022/07/27 10:23:58;;;;;;;;;2.67;2.67;;;;;31.90;28.39;100456.31;5031103;28;45429;-78
2022/07/27 10:26:24;;;;;;;;;0.33;0.33;;;;;32.57;28.03;100451.31;5016146;28;45392;-75
2022/07/27 10:29:04;;;;;;;;;1.00;1.00;;;;;33.15;26.63;100422.34;5030185;28;45375;-76
2022/07/27 10:31:31;;;;;;;;;0.00;0.00;;;;;33.56;26.09;100439.47;5016077;28;46466;-76
2022/07/27 10:34:00;;;;;;;;;0.33;0.00;;;;;33.37;26.84;100446.13;5015841;28;45380;-78
2022/07/27 10:36:28;;;;;;;;;0.00;0.00;;;;;33.31;25.95;100440.25;5016224;28;45569;-76
2022/07/27 10:38:55;;;;;;;;;0.00;0.00;;;;;33.02;26.58;100435.75;5031727;28;45503;-74
2022/07/27 10:41:28;;;;;;;;;0.00;0.00;;;;;32.79;27.07;100444.50;5016511;28;46324;-76
2022/07/27 10:44:32;;;;;;;;;0.00;0.00;;;;;32.21;27.26;100447.22;5019891;28;45346;-75
2022/07/27 10:47:03;;;;;;;;;1.00;1.00;;;;;31.51;28.49;100418.13;5013659;28;45400;-78
2022/07/27 10:49:31;;;;;;;;;1.00;0.00;;;;;31.51;28.20;100442.41;5013984;28;45504;-75
2022/07/27 10:51:58;;;;;;;;;2.00;1.00;;;;;31.14;28.25;100424.75;5023490;28;45747;-76
2022/07/27 10:54:31;;;;;;;;;0.00;0.00;;;;;31.35;28.32;100449.63;5035427;28;45407;-78
2022/07/27 10:56:58;;;;;;;;;0.33;0.33;;;;;31.30;28.86;100446.34;5022128;28;45460;-78
2022/07/27 10:59:39;;;;;;;;;1.00;1.00;;;;;31.35;29.30;100444.22;5016392;28;45459;-74
2022/07/27 11:02:06;;;;;;;;;0.67;0.67;;;;;31.40;28.88;100446.66;5022798;28;45484;-78
2022/07/27 11:04:33;;;;;;;;;1.00;1.00;;;;;30.77;29.53;100355.84;5023366;28;45496;-78
2022/07/27 11:07:00;;;;;;;;;0.67;0.67;;;;;31.02;29.51;100450.63;5031484;28;45505;-76
2022/07/27 11:09:36;;;;;;;;;1.00;1.00;;;;;30.89;29.98;100436.06;5020160;28;45525;-78
2022/07/27 11:12:08;;;;;;;;;0.00;0.00;;;;;30.77;30.02;100440.31;5033469;28;47322;-79
2022/07/27 11:14:54;;;;;;;;;0.33;0.33;;;;;30.97;29.21;100431.13;5020030;28;45596;-77
2022/07/27 11:17:34;;;;;;;;;0.00;0.00;;;;;30.95;28.79;100430.34;5021292;28;45702;-77
2022/07/27 11:20:04;;;;;;;;;1.00;1.00;;;;;31.38;28.99;100418.91;5035362;28;45389;-78
2022/07/27 11:22:30;;;;;;;;;1.00;0.00;;;;;31.65;28.78;100413.69;5034533;28;45491;-78
2022/07/27 11:24:56;;;;;;;;;1.00;1.00;;;;;31.21;28.18;100384.78;5034515;28;45657;-74
2022/07/27 11:27:21;;;;;;;;;0.00;0.00;;;;;31.67;27.95;100400.97;5034934;28;45546;-79